createdAt,value
2022-10-12T00:01:07.560Z,3.40
2022-10-12T00:03:36.554Z,3.40
2022-10-12T00:06:08.011Z,3.40
2022-10-12T00:08:37.813Z,3.40
2022-10-12T00:11:07.698Z,3.30
2022-10-12T00:13:36.471Z,3.20
2022-10-12T00:16:06.634Z,3.20
2022-10-12T00:18:36.181Z,3.10
2022-10-12T00:21:10.672Z,3.20
2022-10-12T00:23:39.805Z,3.20
2022-10-12T00:26:11.481Z,3.10
2022-10-12T00:28:40.583Z,3.10
2022-10-12T00:31:14.759Z,3.20
2022-10-12T00:33:43.342Z,3.10
2022-10-12T00:36:14.275Z,3.10
2022-10-12T00:38:43.051Z,3.10
2022-10-12T00:41:12.762Z,3.00
2022-10-12T00:43:42.935Z,3.00
2022-10-12T00:46:20.208Z,3.00
2022-10-12T00:48:51.946Z,3.00
2022-10-12T00:51:22.340Z,3.00
2022-10-12T00:53:53.852Z,2.90
2022-10-12T00:56:25.149Z,3.00
2022-10-12T00:58:55.074Z,3.00
2022-10-12T01:01:23.963Z,2.90
2022-10-12T01:03:52.604Z,2.90
2022-10-12T01:06:21.543Z,2.90
2022-10-12T01:08:51.008Z,2.80
2022-10-12T01:11:19.448Z,2.80
2022-10-12T01:13:47.881Z,2.70
2022-10-12T01:16:37.812Z,2.80
2022-10-12T01:19:24.354Z,2.90
2022-10-12T01:22:08.086Z,2.90
2022-10-12T01:24:54.437Z,2.80
2022-10-12T01:27:43.946Z,2.70
2022-10-12T01:30:24.525Z,2.90
2022-10-12T01:33:14.119Z,2.80
2022-10-12T01:35:54.372Z,2.80
2022-10-12T01:38:34.998Z,2.90
2022-10-12T01:41:18.115Z,2.80
2022-10-12T01:43:47.334Z,2.70
2022-10-12T01:46:22.133Z,2.70
2022-10-12T01:48:53.076Z,2.60
2022-10-12T01:51:33.625Z,2.60
2022-10-12T01:54:16.774Z,2.60
2022-10-12T01:56:48.354Z,2.50
2022-10-12T01:59:22.813Z,2.50
2022-10-12T02:02:15.144Z,2.50
2022-10-12T02:04:52.471Z,2.60
2022-10-12T02:07:29.696Z,2.50
2022-10-12T02:09:59.703Z,2.50
2022-10-12T02:12:31.725Z,2.50
2022-10-12T02:15:03.261Z,2.40
2022-10-12T02:17:33.515Z,2.30
2022-10-12T02:20:04.306Z,2.30
2022-10-12T02:22:35.880Z,2.30
2022-10-12T02:25:07.727Z,2.50
2022-10-12T02:27:39.666Z,2.40
2022-10-12T02:30:09.382Z,2.30
2022-10-12T02:32:59.106Z,2.40
2022-10-12T02:35:54.680Z,2.40
2022-10-12T02:38:34.832Z,2.30
2022-10-12T02:41:08.886Z,2.30
2022-10-12T02:43:45.977Z,2.30
2022-10-12T02:46:16.652Z,2.30
2022-10-12T02:48:47.281Z,2.20
2022-10-12T02:51:16.518Z,2.20
2022-10-12T02:53:45.240Z,2.20
2022-10-12T02:56:15.991Z,2.30
2022-10-12T02:58:46.412Z,2.20
2022-10-12T03:01:16.871Z,2.20
2022-10-12T03:03:46.357Z,2.10
2022-10-12T03:06:15.121Z,2.10
2022-10-12T03:08:43.529Z,2.20
2022-10-12T03:11:14.680Z,2.20
2022-10-12T03:13:43.204Z,2.20
2022-10-12T03:16:12.613Z,2.20
2022-10-12T03:18:41.463Z,2.10
2022-10-12T03:21:10.757Z,2.10
2022-10-12T03:23:39.575Z,2.10
2022-10-12T03:26:08.394Z,2.00
2022-10-12T03:28:37.177Z,2.00
2022-10-12T03:31:05.815Z,2.10
2022-10-12T03:33:34.322Z,2.10
2022-10-12T03:36:02.875Z,2.00
2022-10-12T03:38:31.437Z,1.90
2022-10-12T03:41:05.688Z,1.80
2022-10-12T03:43:30.235Z,1.80
2022-10-12T03:45:58.679Z,1.90
2022-10-12T03:48:27.129Z,1.90
2022-10-12T03:50:55.742Z,1.80
2022-10-12T03:53:24.262Z,1.90
2022-10-12T03:55:52.863Z,1.90
2022-10-12T03:58:21.410Z,1.80
2022-10-12T04:00:54.403Z,1.70
2022-10-12T04:03:23.419Z,1.80
2022-10-12T04:05:59.093Z,1.70
2022-10-12T04:08:28.344Z,1.70
2022-10-12T04:10:56.830Z,1.70
2022-10-12T04:13:25.483Z,1.80
2022-10-12T04:15:53.923Z,1.80
2022-10-12T04:18:22.493Z,1.80
2022-10-12T04:20:51.321Z,1.90
2022-10-12T04:23:19.852Z,1.70
2022-10-12T04:25:48.371Z,1.70
2022-10-12T04:28:16.894Z,1.70
2022-10-12T04:30:46.622Z,1.70
2022-10-12T04:33:17.982Z,1.70
2022-10-12T04:35:46.566Z,1.80
2022-10-12T04:38:15.159Z,1.80
2022-10-12T04:40:48.553Z,1.80
2022-10-12T04:43:17.906Z,2.00
2022-10-12T04:45:48.168Z,2.00
2022-10-12T04:48:17.118Z,2.00
2022-10-12T04:50:45.653Z,2.00
2022-10-12T04:53:14.210Z,2.00
2022-10-12T04:55:42.641Z,2.00
2022-10-12T04:58:11.211Z,2.10
2022-10-12T05:00:39.843Z,2.00
2022-10-12T05:03:08.348Z,2.00
2022-10-12T05:05:36.994Z,2.00
2022-10-12T05:08:05.893Z,2.00
2022-10-12T05:10:34.418Z,2.00
2022-10-12T05:13:02.871Z,2.00
2022-10-12T05:15:31.479Z,2.00
2022-10-12T05:18:02.905Z,2.10
2022-10-12T05:20:31.349Z,2.10
2022-10-12T05:22:59.988Z,2.10
2022-10-12T05:25:30.204Z,2.10
2022-10-12T05:27:58.940Z,2.10
2022-10-12T05:30:27.736Z,2.10
2022-10-12T05:32:56.284Z,2.10
2022-10-12T05:35:24.844Z,2.10
2022-10-12T05:37:53.342Z,2.10
2022-10-12T05:40:21.919Z,2.20
2022-10-12T05:42:50.421Z,2.20
2022-10-12T05:45:19.038Z,2.20
2022-10-12T05:47:47.496Z,2.30
2022-10-12T05:50:16.123Z,2.30
2022-10-12T05:52:45.168Z,2.30
2022-10-12T05:55:13.662Z,2.40
2022-10-12T05:57:42.237Z,2.40
2022-10-12T06:00:11.033Z,2.40
2022-10-12T06:02:40.005Z,2.30
2022-10-12T06:05:08.829Z,2.30
2022-10-12T06:07:37.363Z,2.30
2022-10-12T06:10:06.594Z,2.30
2022-10-12T06:12:35.550Z,2.30
2022-10-12T06:15:04.343Z,2.30
2022-10-12T06:17:32.989Z,2.30
2022-10-12T06:20:02.035Z,2.30
2022-10-12T06:22:30.566Z,2.30
2022-10-12T06:24:59.040Z,2.40
2022-10-12T06:27:27.459Z,2.40
2022-10-12T06:29:56.032Z,2.40
2022-10-12T06:32:24.561Z,2.50
2022-10-12T06:34:53.126Z,2.60
2022-10-12T06:37:47.916Z,2.70
2022-10-12T06:39:51.805Z,2.80
2022-10-12T06:42:20.318Z,3.00
2022-10-12T06:44:48.815Z,3.10
2022-10-12T06:47:17.324Z,3.10
2022-10-12T06:49:45.884Z,3.30
2022-10-12T06:52:14.370Z,4.00
2022-10-12T06:54:42.841Z,4.20
2022-10-12T06:57:11.464Z,4.90
2022-10-12T06:59:40.125Z,4.90
2022-10-12T07:02:12.853Z,5.20
2022-10-12T07:04:41.641Z,5.60
2022-10-12T07:07:10.132Z,5.80
2022-10-12T07:09:38.763Z,6.10
2022-10-12T07:12:07.533Z,6.20
2022-10-12T07:14:36.001Z,6.50
2022-10-12T07:17:04.505Z,7.30
2022-10-12T07:19:33.017Z,7.30
2022-10-12T07:22:02.355Z,8.00
2022-10-12T07:24:32.479Z,8.70
2022-10-12T07:27:00.956Z,8.90
2022-10-12T07:29:34.182Z,9.50
2022-10-12T07:32:02.781Z,9.40
2022-10-12T07:34:31.570Z,10.00
2022-10-12T07:37:00.260Z,9.70
2022-10-12T07:39:28.865Z,9.00
2022-10-12T07:41:57.410Z,9.10
2022-10-12T07:44:26.108Z,9.80
2022-10-12T07:46:54.593Z,10.50
2022-10-12T07:49:23.194Z,11.50
2022-10-12T07:51:51.690Z,12.10
2022-10-12T07:54:23.496Z,12.40
2022-10-12T07:56:50.577Z,12.60
2022-10-12T07:59:19.008Z,13.10
2022-10-12T08:01:47.620Z,13.40
2022-10-12T08:04:16.325Z,13.60
2022-10-12T08:06:44.933Z,13.40
2022-10-12T08:09:13.496Z,13.50
2022-10-12T08:11:42.209Z,13.70
2022-10-12T08:14:17.391Z,14.30
2022-10-12T08:16:46.324Z,14.50
2022-10-12T08:19:15.308Z,14.50
2022-10-12T08:21:43.882Z,15.40
2022-10-12T08:24:13.639Z,15.50
2022-10-12T08:26:42.165Z,15.80
2022-10-12T08:29:11.530Z,15.90
2022-10-12T08:31:40.838Z,15.80
2022-10-12T08:34:09.668Z,15.90
2022-10-12T08:36:38.569Z,16.80
2022-10-12T08:39:09.739Z,17.40
2022-10-12T08:41:53.037Z,17.30
2022-10-12T08:44:36.634Z,19.00
2022-10-12T08:47:17.074Z,18.00
2022-10-12T08:49:49.853Z,19.30
2022-10-12T08:52:28.719Z,18.70
2022-10-12T08:55:00.356Z,19.10
2022-10-12T08:57:28.966Z,17.40
2022-10-12T08:59:57.473Z,18.80
2022-10-12T09:02:48.577Z,18.70
2022-10-12T09:05:25.964Z,20.00
2022-10-12T09:08:06.519Z,21.10
2022-10-12T09:10:57.584Z,20.00
2022-10-12T09:13:48.362Z,22.20
2022-10-12T09:16:25.734Z,21.00
2022-10-12T09:18:57.752Z,20.60
2022-10-12T09:21:29.108Z,19.80
2022-10-12T09:23:58.713Z,19.10
2022-10-12T09:26:39.184Z,19.30
2022-10-12T09:29:25.716Z,20.50
2022-10-12T09:32:06.233Z,21.00
2022-10-12T09:34:34.929Z,21.50
2022-10-12T09:37:05.017Z,20.90
2022-10-12T09:39:35.983Z,22.20
2022-10-12T09:42:07.449Z,22.20
2022-10-12T09:44:44.841Z,22.30
2022-10-12T09:47:27.145Z,22.20
2022-10-12T09:50:00.883Z,20.80
2022-10-12T09:52:38.638Z,20.70
2022-10-12T09:55:10.183Z,19.50
2022-10-12T09:57:41.829Z,18.80
2022-10-12T10:00:29.640Z,20.10
2022-10-12T10:02:58.948Z,21.00
2022-10-12T10:05:36.104Z,20.00
2022-10-12T10:08:22.283Z,20.50
2022-10-12T10:10:56.758Z,21.50
2022-10-12T10:13:28.384Z,22.50
2022-10-12T10:16:08.805Z,20.80
2022-10-12T10:18:47.221Z,21.80
2022-10-12T10:21:18.892Z,21.00
2022-10-12T10:23:56.061Z,23.00
2022-10-12T10:26:25.935Z,23.80
2022-10-12T10:29:13.838Z,23.50
2022-10-12T10:31:42.789Z,25.90
2022-10-12T10:34:19.818Z,26.20
2022-10-12T10:36:54.287Z,24.90
2022-10-12T10:39:25.899Z,25.90
2022-10-12T10:44:32.882Z,25.50
2022-10-12T10:47:04.688Z,27.40
2022-10-12T10:49:47.192Z,28.10
2022-10-12T10:52:30.702Z,27.80
2022-10-12T10:55:20.141Z,26.20
2022-10-12T11:03:00.439Z,26.70
2022-10-12T11:05:38.317Z,23.40
2022-10-12T11:08:09.566Z,24.30
2022-10-12T11:10:46.852Z,24.00
2022-10-12T11:13:36.276Z,22.00
2022-10-12T11:16:10.733Z,22.40
2022-10-12T11:18:42.346Z,22.60
2022-10-12T11:21:16.709Z,25.80
2022-10-12T11:24:06.381Z,25.80
2022-10-12T11:26:40.641Z,28.50
2022-10-12T11:29:11.857Z,28.20
2022-10-12T11:31:55.251Z,28.00
2022-10-12T11:34:26.153Z,27.10
2022-10-12T11:37:18.058Z,29.30
2022-10-12T11:39:35.811Z,30.20
2022-10-12T11:42:21.518Z,29.40
2022-10-12T11:44:46.375Z,28.20
2022-10-12T11:47:20.716Z,26.10
2022-10-12T11:49:52.297Z,26.50
2022-10-12T11:52:25.105Z,25.80
2022-10-12T11:55:20.331Z,25.50
2022-10-12T11:57:49.949Z,28.20
2022-10-12T12:00:22.556Z,30.00
2022-10-12T12:02:56.790Z,29.20
2022-10-12T12:05:26.886Z,28.00
2022-10-12T12:07:57.140Z,30.90
2022-10-12T12:10:30.327Z,29.90
2022-10-12T12:13:20.374Z,28.00
2022-10-12T12:15:52.053Z,24.10
2022-10-12T12:18:25.407Z,27.40
2022-10-12T12:21:08.743Z,27.90
2022-10-12T12:23:40.277Z,28.80
2022-10-12T12:26:16.860Z,30.50
2022-10-12T12:28:50.117Z,31.90
2022-10-12T12:31:27.551Z,27.90
2022-10-12T12:34:15.086Z,28.30
2022-10-12T12:36:46.677Z,30.50
2022-10-12T12:39:31.776Z,30.80
2022-10-12T12:42:02.991Z,30.60
2022-10-12T12:44:43.050Z,28.80
2022-10-12T12:49:56.451Z,22.30
2022-10-12T12:52:36.916Z,21.90
2022-10-12T12:57:56.020Z,20.30
2022-10-12T13:00:34.197Z,20.00
2022-10-12T13:03:29.228Z,20.50
2022-10-12T13:06:03.547Z,20.60
2022-10-12T13:09:00.397Z,19.80
2022-10-12T13:12:00.283Z,20.10
2022-10-12T13:14:37.695Z,21.00
2022-10-12T13:17:35.752Z,23.40
2022-10-12T13:20:07.466Z,22.90
2022-10-12T13:22:36.413Z,23.70
2022-10-12T13:25:07.804Z,25.50
2022-10-12T13:27:42.099Z,27.60
2022-10-12T13:30:16.620Z,26.40
2022-10-12T13:33:06.131Z,25.00
2022-10-12T13:35:55.389Z,25.20
2022-10-12T13:38:26.722Z,25.50
2022-10-12T13:41:12.887Z,27.10
2022-10-12T13:44:01.749Z,26.50
2022-10-12T13:46:39.077Z,26.60
2022-10-12T13:49:16.855Z,26.70
2022-10-12T13:51:48.657Z,26.40
2022-10-12T13:54:20.006Z,26.80
2022-10-12T13:56:51.771Z,24.90
2022-10-12T13:59:23.517Z,22.10
2022-10-12T14:02:03.676Z,21.10
2022-10-12T14:04:34.931Z,20.20
2022-10-12T14:07:06.549Z,19.00
2022-10-12T14:09:47.280Z,19.90
2022-10-12T14:12:16.482Z,19.40
2022-10-12T14:14:47.237Z,18.70
2022-10-12T14:17:20.215Z,19.10
2022-10-12T14:22:28.767Z,19.60
2022-10-12T14:25:16.686Z,19.40
2022-10-12T14:27:45.574Z,20.80
2022-10-12T14:30:23.331Z,20.10
2022-10-12T14:32:59.394Z,18.80
2022-10-12T14:35:29.800Z,18.60
2022-10-12T14:37:58.996Z,18.70
2022-10-12T14:40:38.474Z,20.10
2022-10-12T14:43:18.812Z,20.70
2022-10-12T14:45:47.486Z,21.90
2022-10-12T14:48:19.111Z,22.10
2022-10-12T14:50:48.039Z,21.00
2022-10-12T14:53:16.934Z,19.80
2022-10-12T14:55:47.599Z,19.20
2022-10-12T14:58:17.896Z,22.10
2022-10-12T15:00:46.499Z,22.30
2022-10-12T15:03:16.750Z,20.20
2022-10-12T15:05:45.301Z,19.20
2022-10-12T15:08:13.853Z,18.60
2022-10-12T15:10:42.646Z,19.00
2022-10-12T15:13:14.219Z,19.90
2022-10-12T15:15:50.114Z,22.20
2022-10-12T15:18:18.994Z,23.10
2022-10-12T15:20:49.729Z,23.70
2022-10-12T15:23:18.851Z,23.50
2022-10-12T15:25:56.140Z,24.00
2022-10-12T15:28:24.844Z,22.70
2022-10-12T15:33:23.951Z,22.00
2022-10-12T15:35:52.535Z,21.30
2022-10-12T15:38:21.133Z,21.70
2022-10-12T15:40:51.392Z,21.90
2022-10-12T15:43:20.457Z,22.10
2022-10-12T15:45:49.557Z,21.50
2022-10-12T15:48:18.086Z,20.00
2022-10-12T15:50:49.069Z,19.40
2022-10-12T15:53:24.374Z,18.80
2022-10-12T15:55:54.349Z,18.60
2022-10-12T15:58:23.142Z,18.30
2022-10-12T16:00:51.683Z,17.70
2022-10-12T16:03:26.063Z,17.20
2022-10-12T16:05:52.167Z,16.80
2022-10-12T16:08:20.737Z,16.70
2022-10-12T16:10:49.357Z,16.30
2022-10-12T16:13:18.089Z,16.10
2022-10-12T16:15:46.855Z,15.80
2022-10-12T16:18:18.112Z,15.60
2022-10-12T16:20:51.082Z,15.60
2022-10-12T16:23:20.013Z,15.40
2022-10-12T16:25:48.638Z,15.30
2022-10-12T16:28:17.236Z,15.20
2022-10-12T16:30:45.792Z,15.00
2022-10-12T16:33:14.409Z,15.10
2022-10-12T16:35:43.174Z,15.00
2022-10-12T16:38:11.766Z,15.00
2022-10-12T16:40:42.562Z,14.90
2022-10-12T16:43:11.865Z,14.80
2022-10-12T16:45:40.414Z,14.70
2022-10-12T16:48:09.028Z,14.60
2022-10-12T16:50:40.636Z,14.60
2022-10-12T16:53:09.142Z,14.70
2022-10-12T16:55:40.292Z,14.40
2022-10-12T16:58:08.830Z,14.40
2022-10-12T17:00:37.541Z,14.20
2022-10-12T17:03:06.036Z,14.00
2022-10-12T17:05:34.621Z,14.10
2022-10-12T17:08:03.217Z,14.10
2022-10-12T17:10:31.736Z,13.70
2022-10-12T17:13:00.219Z,13.40
2022-10-12T17:15:28.837Z,13.10
2022-10-12T17:17:59.099Z,13.10
2022-10-12T17:20:27.670Z,13.20
2022-10-12T17:22:56.175Z,12.90
2022-10-12T17:25:24.633Z,12.60
2022-10-12T17:27:53.127Z,12.60
2022-10-12T17:30:21.777Z,12.60
2022-10-12T17:32:50.356Z,12.50
2022-10-12T17:35:18.988Z,12.50
2022-10-12T17:37:47.544Z,12.30
2022-10-12T17:40:16.201Z,12.20
2022-10-12T17:42:44.744Z,12.30
2022-10-12T17:45:13.362Z,12.10
2022-10-12T17:47:41.894Z,12.20
2022-10-12T17:50:10.587Z,12.00
2022-10-12T17:52:39.576Z,11.90
2022-10-12T17:55:19.217Z,11.90
2022-10-12T17:57:38.901Z,11.80
2022-10-12T18:00:08.182Z,11.70
2022-10-12T18:02:36.686Z,11.50
2022-10-12T18:05:05.422Z,11.50
2022-10-12T18:07:33.905Z,11.20
2022-10-12T18:10:02.395Z,11.20
2022-10-12T18:12:30.867Z,11.20
2022-10-12T18:14:59.380Z,11.00
2022-10-12T18:17:27.995Z,10.90
2022-10-12T18:19:56.453Z,10.90
2022-10-12T18:22:24.947Z,10.70
2022-10-12T18:24:53.634Z,10.80
2022-10-12T18:27:22.167Z,10.70
2022-10-12T18:29:50.850Z,10.70
2022-10-12T18:32:19.830Z,10.60
2022-10-12T18:34:48.706Z,10.50
2022-10-12T18:37:17.195Z,10.40
2022-10-12T18:39:45.812Z,10.30
2022-10-12T18:42:14.292Z,10.10
2022-10-12T18:44:43.291Z,10.20
2022-10-12T18:47:11.884Z,10.10
2022-10-12T18:49:40.377Z,10.20
2022-10-12T18:52:08.859Z,10.10
2022-10-12T18:54:40.106Z,10.10
2022-10-12T18:57:08.882Z,10.00
2022-10-12T18:59:38.709Z,9.90
2022-10-12T19:02:07.653Z,9.80
2022-10-12T19:04:36.197Z,9.60
2022-10-12T19:07:04.716Z,9.50
2022-10-12T19:09:33.149Z,9.50
2022-10-12T19:12:01.621Z,9.40
2022-10-12T19:14:30.247Z,9.30
2022-10-12T19:16:58.866Z,9.30
2022-10-12T19:19:28.032Z,9.20
2022-10-12T19:21:56.573Z,9.00
2022-10-12T19:24:25.113Z,8.90
2022-10-12T19:26:53.573Z,8.80
2022-10-12T19:29:22.063Z,8.80
2022-10-12T19:31:51.911Z,8.80
2022-10-12T19:34:21.985Z,8.70
2022-10-12T19:36:50.625Z,8.60
2022-10-12T19:39:22.279Z,8.60
2022-10-12T19:41:51.689Z,8.50
2022-10-12T19:44:20.604Z,8.40
2022-10-12T19:46:50.955Z,8.30
2022-10-12T19:49:20.335Z,8.20
2022-10-12T19:51:48.919Z,8.20
2022-10-12T19:54:19.675Z,8.10
2022-10-12T19:56:48.230Z,8.10
2022-10-12T19:59:16.905Z,8.10
2022-10-12T20:01:47.278Z,8.00
2022-10-12T20:04:16.222Z,8.00
2022-10-12T20:06:44.839Z,8.00
2022-10-12T20:09:13.397Z,7.90
2022-10-12T20:11:41.929Z,7.90
2022-10-12T20:14:11.747Z,7.90
2022-10-12T20:16:40.185Z,7.80
2022-10-12T20:19:08.738Z,7.80
2022-10-12T20:21:37.404Z,7.70
2022-10-12T20:24:07.501Z,7.70
2022-10-12T20:26:36.085Z,7.60
2022-10-12T20:29:04.620Z,7.70
2022-10-12T20:31:33.164Z,7.70
2022-10-12T20:34:01.596Z,7.60
2022-10-12T20:36:31.564Z,7.50
2022-10-12T20:39:00.930Z,7.50
2022-10-12T20:41:29.415Z,7.40
2022-10-12T20:43:59.120Z,7.40
2022-10-12T20:46:28.643Z,7.50
2022-10-12T20:49:00.236Z,7.50
2022-10-12T20:51:36.877Z,7.60
2022-10-12T20:54:07.301Z,7.60
2022-10-12T20:56:36.094Z,7.50
2022-10-12T20:59:04.572Z,7.40
2022-10-12T21:01:33.150Z,7.30
2022-10-12T21:04:01.837Z,7.30
2022-10-12T21:06:30.335Z,7.20
2022-10-12T21:08:59.054Z,7.20
2022-10-12T21:11:27.544Z,7.10
2022-10-12T21:13:56.514Z,7.10
2022-10-12T21:16:26.945Z,6.90
2022-10-12T21:18:56.229Z,6.90
2022-10-12T21:21:24.820Z,7.00
2022-10-12T21:23:58.515Z,6.90
2022-10-12T21:26:29.442Z,7.00
2022-10-12T21:29:00.156Z,6.90
2022-10-12T21:31:32.617Z,6.90
2022-10-12T21:34:01.321Z,6.80
2022-10-12T21:36:30.991Z,6.90
2022-10-12T21:38:59.598Z,6.80
2022-10-12T21:41:29.694Z,6.80
2022-10-12T21:43:58.939Z,6.80
2022-10-12T21:46:30.346Z,6.80
2022-10-12T21:48:59.997Z,6.80
2022-10-12T21:51:30.418Z,6.70
2022-10-12T21:53:59.205Z,6.70
2022-10-12T21:56:33.016Z,6.60
2022-10-12T21:59:02.412Z,6.90
2022-10-12T22:01:34.584Z,7.10
2022-10-12T22:04:06.359Z,7.50
2022-10-12T22:06:35.524Z,7.80
2022-10-12T22:09:07.023Z,8.10
2022-10-12T22:11:37.441Z,8.40
2022-10-12T22:14:09.031Z,9.20
2022-10-12T22:16:38.071Z,9.40
2022-10-12T22:19:09.057Z,9.40
2022-10-12T22:21:37.972Z,9.60
2022-10-12T22:24:06.849Z,9.70
2022-10-12T22:26:35.441Z,9.90
2022-10-12T22:29:07.384Z,9.90
2022-10-12T22:31:35.989Z,9.90
2022-10-12T22:34:04.766Z,9.90
2022-10-12T22:36:33.879Z,10.00
2022-10-12T22:39:02.407Z,9.90
2022-10-12T22:41:30.992Z,9.90
2022-10-12T22:43:59.449Z,10.10
2022-10-12T22:46:28.059Z,10.00
2022-10-12T22:48:56.830Z,9.90
2022-10-12T22:51:33.675Z,10.00
2022-10-12T22:54:03.497Z,10.00
2022-10-12T22:56:32.311Z,9.90
2022-10-12T22:59:03.401Z,9.90
2022-10-12T23:01:31.940Z,9.90
2022-10-12T23:04:02.602Z,9.90
2022-10-12T23:06:31.145Z,9.90
2022-10-12T23:08:59.639Z,9.90
2022-10-12T23:11:29.827Z,10.10
2022-10-12T23:13:58.881Z,10.20
2022-10-12T23:16:30.400Z,10.10
2022-10-12T23:19:01.581Z,10.20
2022-10-12T23:21:31.428Z,10.20
2022-10-12T23:24:01.699Z,10.20
2022-10-12T23:26:30.601Z,10.30
2022-10-12T23:28:59.702Z,10.30
2022-10-12T23:31:30.630Z,10.30
2022-10-12T23:34:01.273Z,10.30
2022-10-12T23:36:30.853Z,10.30
2022-10-12T23:39:01.617Z,10.30
2022-10-12T23:41:30.236Z,10.40
2022-10-12T23:43:58.770Z,10.50
2022-10-12T23:46:27.297Z,10.50
2022-10-12T23:48:55.786Z,10.50
2022-10-12T23:51:24.359Z,10.50
2022-10-12T23:53:52.858Z,10.60
2022-10-12T23:56:21.332Z,10.60
2022-10-12T23:58:49.858Z,10.70
